Time;durP1;ratioP1;P1;durP2;ratioP2;P2;SDS_P1;SDS_P2;PMS_P1;PMS_P2;Temp;Humidity;BMP_temperature;BMP_pressure;BME280_temperature;BME280_humidity;BME280_pressure;Samples;Min_cycle;Max_cycle;Signal;HPM_P1;HPM_P2
2023/06/25 00:02:03;;;;;;;;;;;21.10;41.40;;;17.52;60.94;95796.19;4992953;28;19915;-44
2023/06/25 00:04:28;;;;;;;;;;;21.10;41.50;;;17.48;61.04;95791.69;4976180;28;20314;-47
2023/06/25 00:06:54;;;;;;;;;;;21.10;41.50;;;17.47;60.97;95782.81;4994905;28;19917;-45
2023/06/25 00:09:20;;;;;;;;;;;21.10;41.60;;;17.46;60.46;95785.81;4992668;28;19913;-43
2023/06/25 00:11:46;;;;;;;;;;;21.10;41.60;;;17.48;60.77;95786.28;4994955;28;19909;-44
2023/06/25 00:14:12;;;;;;;;;;;21.10;41.60;;;17.49;61.05;95785.22;4992104;28;19913;-44
2023/06/25 00:16:37;;;;;;;;;;;21.10;41.60;;;17.44;60.58;95779.94;4991205;28;19910;-43
2023/06/25 00:19:03;;;;;;;;;;;21.10;41.60;;;17.45;61.25;95793.06;4994759;28;19913;-44
2023/06/25 00:21:29;;;;;;;;;;;21.10;41.70;;;17.45;61.24;95794.97;4983601;28;20016;-44
2023/06/25 00:23:56;;;;;;;;;;;21.10;41.70;;;17.39;61.43;95788.09;4994762;28;19916;-44
2023/06/25 00:26:21;;;;;;;;;;;21.10;41.70;;;17.36;61.56;95786.84;4992089;28;20402;-43
2023/06/25 00:28:47;;;;;;;;;;;21.00;41.70;;;17.31;61.71;95786.94;5004775;28;19913;-44
2023/06/25 00:31:13;;;;;;;;;;;21.00;41.70;;;17.22;61.99;95789.53;4994297;28;19944;-45
2023/06/25 00:33:41;;;;;;;;;;;20.90;41.70;;;17.18;63.05;95787.78;4987877;28;19913;-44
2023/06/25 00:36:07;;;;;;;;;;;20.90;41.80;;;17.10;63.67;95787.34;4994320;28;19910;-43
2023/06/25 00:38:39;;;;;;;;;;;20.80;41.80;;;16.98;64.66;95789.75;4987850;28;19972;-44
2023/06/25 00:41:08;;;;;;;;;;;20.70;41.80;;;16.76;66.04;95784.28;4990886;28;19909;-45
2023/06/25 00:43:34;;;;;;;;;;;20.70;41.90;;;16.64;66.77;95788.25;4994116;28;20015;-44
2023/06/25 00:46:01;;;;;;;;;;;20.60;42.00;;;16.49;67.18;95776.97;4991790;28;19917;-44
2023/06/25 00:48:27;;;;;;;;;;;20.40;42.00;;;16.31;67.26;95784.81;4982598;28;19918;-45
2023/06/25 00:51:01;;;;;;;;;;;20.30;42.20;;;16.15;68.30;95780.78;5003455;28;19911;-43
2023/06/25 00:53:36;;;;;;;;;;;20.20;42.30;;;16.03;67.83;95772.41;4994263;28;19963;-44
2023/06/25 00:56:03;;;;;;;;;;;20.10;42.50;;;15.89;68.21;95781.22;4992783;28;20004;-44
2023/06/25 00:58:29;;;;;;;;;;;20.00;42.60;;;15.78;68.90;95777.09;4976547;28;19914;-43
2023/06/25 01:00:59;;;;;;;;;;;19.90;42.70;;;15.66;68.57;95774.81;4969845;28;20039;-44
2023/06/25 01:03:41;;;;;;;;;;;19.70;42.80;;;15.50;69.22;95776.94;4997818;28;19917;-45
2023/06/25 01:06:29;;;;;;;;;;;19.60;43.00;;;15.35;69.98;95774.47;5008858;28;20323;-44
2023/06/25 01:08:59;;;;;;;;;;;19.50;43.20;;;15.20;71.62;95780.06;5007028;28;19917;-44
2023/06/25 01:11:26;;;;;;;;;;;19.40;43.40;;;15.09;72.27;95770.53;4993184;28;19941;-43
2023/06/25 01:13:52;;;;;;;;;;;19.20;43.40;;;14.98;72.57;95777.94;4980595;28;20384;-48
2023/06/25 01:16:18;;;;;;;;;;;19.10;43.60;;;14.87;74.75;95777.22;4987955;28;20012;-45
2023/06/25 01:18:44;;;;;;;;;;;19.00;43.80;;;14.72;77.58;95775.53;4993651;28;19910;-44
2023/06/25 01:21:10;;;;;;;;;;;18.90;44.00;;;14.66;78.59;95775.88;4984207;28;19910;-45
2023/06/25 01:23:37;;;;;;;;;;;18.80;44.10;;;14.63;78.81;95763.03;4993723;28;19909;-47
2023/06/25 01:26:03;;;;;;;;;;;18.70;44.30;;;14.57;80.09;95756.94;5007652;28;20016;-47
2023/06/25 01:28:29;;;;;;;;;;;18.70;44.50;;;14.50;80.20;95762.59;4981372;28;19924;-44
2023/06/25 01:30:56;;;;;;;;;;;18.60;44.70;;;14.49;81.06;95762.91;4993446;28;19913;-43
2023/06/25 01:33:26;;;;;;;;;;;18.50;44.80;;;14.44;80.64;95765.63;5003024;28;19913;-44
2023/06/25 01:35:54;;;;;;;;;;;18.40;44.90;;;14.38;82.25;95767.56;4993263;28;19909;-43
2023/06/25 01:38:21;;;;;;;;;;;18.40;45.20;;;14.20;83.56;95763.72;4989472;28;20387;-43
2023/06/25 01:40:46;;;;;;;;;;;18.20;45.20;;;14.08;85.50;95758.75;4988724;28;19909;-43
2023/06/25 01:43:12;;;;;;;;;;;18.20;46.00;;;14.02;86.44;95762.53;4993356;28;19989;-43
2023/06/25 01:45:38;;;;;;;;;;;18.10;45.50;;;13.94;87.54;95754.31;4979544;28;19925;-45
2023/06/25 01:48:06;;;;;;;;;;;18.10;45.80;;;13.87;87.99;95750.09;4999757;28;20005;-43
2023/06/25 01:50:33;;;;;;;;;;;18.00;46.00;;;13.84;87.67;95750.66;4985490;28;19909;-43
2023/06/25 01:52:59;;;;;;;;;;;17.90;46.10;;;13.75;88.84;95752.31;4992944;28;19913;-47
2023/06/25 01:55:24;;;;;;;;;;;17.80;46.20;;;13.64;90.53;95740.13;4986409;28;19917;-43
2023/06/25 01:57:50;;;;;;;;;;;17.80;46.40;;;13.58;91.50;95743.91;4978706;28;20321;-43
2023/06/25 02:00:16;;;;;;;;;;;17.70;46.60;;;13.47;92.41;95747.72;4988270;28;19917;-43
2023/06/25 02:02:43;;;;;;;;;;;17.60;46.70;;;13.34;93.66;95744.59;4984953;28;20383;-45
2023/06/25 02:05:09;;;;;;;;;;;17.50;46.80;;;13.28;94.21;95743.03;5003344;28;19913;-45
2023/06/25 02:07:35;;;;;;;;;;;17.40;47.00;;;13.24;95.12;95741.16;4992783;28;19909;-43
2023/06/25 02:10:01;;;;;;;;;;;17.40;47.30;;;13.18;95.55;95738.50;4989692;28;19909;-44
2023/06/25 02:12:27;;;;;;;;;;;17.40;47.50;;;13.10;95.70;95741.78;4992867;28;20322;-44
2023/06/25 02:14:52;;;;;;;;;;;17.20;47.60;;;13.20;93.96;95732.91;4985196;28;19914;-46
2023/06/25 02:17:18;;;;;;;;;;;17.20;47.80;;;13.28;92.09;95734.22;4992840;28;19924;-43
2023/06/25 02:19:44;;;;;;;;;;;17.20;48.00;;;13.32;92.27;95732.59;4992678;28;19909;-44
2023/06/25 02:22:09;;;;;;;;;;;17.20;48.10;;;13.34;91.75;95728.53;4964458;28;19910;-44
2023/06/25 02:24:35;;;;;;;;;;;17.20;48.20;;;13.39;91.65;95730.41;4983636;28;19913;-43
2023/06/25 02:27:01;;;;;;;;;;;17.20;48.30;;;13.40;91.72;95737.34;4991043;28;19909;-43
2023/06/25 02:29:26;;;;;;;;;;;17.20;48.40;;;13.41;92.02;95723.69;4988167;28;19913;-45
2023/06/25 02:31:52;;;;;;;;;;;17.20;48.60;;;13.42;93.21;95727.97;4992402;28;19924;-46
2023/06/25 02:34:18;;;;;;;;;;;17.20;48.70;;;13.42;91.75;95724.50;4986887;28;20008;-43
2023/06/25 02:36:44;;;;;;;;;;;17.20;48.70;;;13.48;90.12;95720.69;4992530;28;19909;-44
2023/06/25 02:39:09;;;;;;;;;;;17.30;48.80;;;13.55;89.69;95717.69;4982314;28;19909;-44
2023/06/25 02:41:35;;;;;;;;;;;17.30;48.90;;;13.57;89.23;95721.69;4992595;28;20373;-45
2023/06/25 02:44:01;;;;;;;;;;;17.30;49.00;;;13.59;88.42;95716.84;4990050;28;20004;-43
2023/06/25 02:46:27;;;;;;;;;;;17.40;49.10;;;13.67;88.29;95728.84;4980697;28;19913;-42
2023/06/25 02:48:52;;;;;;;;;;;17.40;49.20;;;13.72;88.17;95717.28;4979312;28;20020;-46
2023/06/25 02:51:18;;;;;;;;;;;17.40;49.30;;;13.74;87.84;95715.94;4987717;28;19914;-44
2023/06/25 02:53:44;;;;;;;;;;;17.50;49.30;;;13.77;86.92;95725.28;4992142;28;19909;-45
2023/06/25 02:56:10;;;;;;;;;;;17.50;49.30;;;13.78;86.79;95724.19;4983833;28;19958;-44
2023/06/25 02:58:35;;;;;;;;;;;17.50;49.30;;;13.81;87.03;95726.31;4977501;28;19916;-44
2023/06/25 03:01:01;;;;;;;;;;;17.60;49.40;;;13.81;87.45;95726.31;4992132;28;20233;-46
2023/06/25 03:03:27;;;;;;;;;;;17.60;49.40;;;13.78;87.59;95722.31;4971967;28;19910;-45
2023/06/25 03:05:53;;;;;;;;;;;17.60;49.30;;;13.70;89.75;95724.81;4992191;28;19921;-44
2023/06/25 03:08:19;;;;;;;;;;;17.60;49.30;;;13.60;90.74;95721.16;5005421;28;19941;-44
2023/06/25 03:10:44;;;;;;;;;;;17.60;49.30;;;13.51;91.75;95727.38;4995606;28;19915;-43
2023/06/25 03:13:11;;;;;;;;;;;17.60;49.30;;;13.49;91.13;95734.88;4995946;28;19997;-43
2023/06/25 03:15:37;;;;;;;;;;;17.50;49.30;;;13.48;90.91;95725.25;4990169;28;19917;-47
2023/06/25 03:18:03;;;;;;;;;;;17.50;49.40;;;13.45;90.76;95726.59;4995916;28;19914;-45
2023/06/25 03:20:29;;;;;;;;;;;17.40;49.40;;;13.46;90.85;95719.38;4990075;28;19914;-46
2023/06/25 03:22:54;;;;;;;;;;;17.40;49.50;;;13.43;91.06;95718.06;4987106;28;19909;-42
2023/06/25 03:25:20;;;;;;;;;;;17.40;49.60;;;13.40;91.48;95718.59;4976215;28;19964;-43
2023/06/25 03:27:46;;;;;;;;;;;17.40;49.60;;;13.37;91.74;95717.28;4977656;28;19936;-43
2023/06/25 03:30:12;;;;;;;;;;;17.40;49.70;;;13.34;92.28;95723.19;4995537;28;19913;-45
2023/06/25 03:32:37;;;;;;;;;;;17.30;49.70;;;13.30;92.68;95726.72;4991131;28;19917;-45
2023/06/25 03:35:04;;;;;;;;;;;17.30;49.80;;;13.30;92.89;95730.19;5010550;28;19916;-45
2023/06/25 03:37:29;;;;;;;;;;;17.30;49.90;;;13.30;92.44;95729.38;4995584;28;19909;-45
2023/06/25 03:39:55;;;;;;;;;;;17.30;50.00;;;13.28;92.91;95728.84;4980165;28;20264;-46
2023/06/25 03:42:21;;;;;;;;;;;17.20;50.00;;;13.21;93.08;95731.81;4995433;28;19916;-44
2023/06/25 03:44:52;;;;;;;;;;;17.20;50.10;;;13.13;94.62;95729.72;4986405;28;19918;-44
2023/06/25 03:47:18;;;;;;;;;;;17.20;50.20;;;13.06;95.67;95730.03;4988896;28;19909;-46
2023/06/25 03:49:44;;;;;;;;;;;17.10;50.30;;;13.04;95.89;95726.06;4984584;28;20000;-44
2023/06/25 03:52:09;;;;;;;;;;;17.10;50.30;;;12.98;95.56;95730.63;4986526;28;19917;-45
2023/06/25 03:54:35;;;;;;;;;;;17.10;50.40;;;12.95;94.44;95721.28;5008327;28;20003;-43
2023/06/25 03:57:01;;;;;;;;;;;17.10;50.50;;;12.94;95.04;95721.53;4983512;28;20004;-44
2023/06/25 03:59:28;;;;;;;;;;;17.00;50.50;;;12.98;94.09;95729.81;4995119;28;20265;-42
2023/06/25 04:01:53;;;;;;;;;;;17.00;50.60;;;12.94;93.49;95729.56;4994501;28;19916;-42
2023/06/25 04:04:19;;;;;;;;;;;17.00;50.70;;;12.89;93.66;95727.72;4984159;28;19909;-43
2023/06/25 04:06:45;;;;;;;;;;;17.00;50.70;;;12.86;95.47;95735.50;4994873;28;20364;-43
2023/06/25 04:09:10;;;;;;;;;;;17.00;50.80;;;12.82;97.38;95737.13;4992765;28;19914;-44
2023/06/25 04:11:36;;;;;;;;;;;17.00;51.40;;;12.81;97.29;95733.63;4994712;28;19910;-43
2023/06/25 04:14:02;;;;;;;;;;;17.00;51.50;;;12.92;96.83;95723.69;4993251;28;19914;-47
2023/06/25 04:16:28;;;;;;;;;;;17.00;51.00;;;13.03;95.99;95732.44;4989839;28;20245;-46
2023/06/25 04:18:53;;;;;;;;;;;17.10;51.10;;;13.25;93.40;95729.41;4994873;28;19910;-43
2023/06/25 04:21:19;;;;;;;;;;;17.20;51.20;;;13.55;92.41;95731.09;4982402;28;20319;-45
2023/06/25 04:23:45;;;;;;;;;;;17.30;51.20;;;13.84;91.69;95737.25;4983909;28;19909;-48
2023/06/25 04:26:11;;;;;;;;;;;17.40;51.30;;;14.14;91.51;95743.44;4991279;28;20398;-44
2023/06/25 04:28:36;;;;;;;;;;;17.50;51.30;;;14.40;89.33;95743.97;4983501;28;20233;-46
2023/06/25 04:31:02;;;;;;;;;;;17.70;51.20;;;14.64;86.88;95743.19;4994306;28;19973;-47
2023/06/25 04:33:28;;;;;;;;;;;17.80;51.20;;;14.82;86.09;95742.41;4989154;28;20008;-49
2023/06/25 04:35:53;;;;;;;;;;;18.00;51.10;;;15.02;84.78;95744.06;4994343;28;19909;-47
2023/06/25 04:38:19;;;;;;;;;;;18.20;51.00;;;15.20;84.25;95739.81;4990809;28;19922;-47
2023/06/25 04:40:45;;;;;;;;;;;18.40;50.90;;;15.31;84.82;95735.09;4988986;28;19955;-47
2023/06/25 04:43:11;;;;;;;;;;;18.60;50.80;;;15.44;84.38;95734.34;4986359;28;19910;-45
2023/06/25 04:45:36;;;;;;;;;;;18.80;50.60;;;15.62;83.81;95746.97;4996248;23;19960;-47
2023/06/25 04:48:02;;;;;;;;;;;18.90;50.50;;;15.79;81.65;95741.06;4991459;28;19943;-46
2023/06/25 04:50:28;;;;;;;;;;;19.10;50.40;;;16.02;80.94;95742.06;4972452;28;19914;-48
2023/06/25 04:52:54;;;;;;;;;;;19.30;50.40;;;16.23;80.38;95749.75;4979631;28;20008;-46
2023/06/25 04:55:20;;;;;;;;;;;19.60;50.30;;;16.47;79.65;95752.28;4993683;28;19955;-46
2023/06/25 04:57:46;;;;;;;;;;;19.80;50.10;;;16.63;77.06;95745.50;4989076;28;19972;-47
2023/06/25 05:00:13;;;;;;;;;;;20.00;50.00;;;16.83;76.61;95737.06;4989842;28;20299;-47
2023/06/25 05:02:38;;;;;;;;;;;20.20;49.80;;;17.09;74.71;95731.94;4988542;28;19963;-46
2023/06/25 05:05:05;;;;;;;;;;;20.50;49.60;;;17.39;73.90;95731.56;4990808;28;20027;-47
2023/06/25 05:07:30;;;;;;;;;;;20.70;49.40;;;17.57;71.03;95733.31;4993927;28;20445;-47
2023/06/25 05:09:56;;;;;;;;;;;20.90;49.20;;;17.75;71.27;95732.34;4977191;28;20012;-46
2023/06/25 05:12:22;;;;;;;;;;;21.20;49.00;;;17.95;70.40;95738.34;4983964;28;20298;-46
2023/06/25 05:14:47;;;;;;;;;;;21.40;48.90;;;18.09;68.99;95741.78;4989582;28;20323;-50
2023/06/25 05:17:13;;;;;;;;;;;21.60;48.60;;;18.26;66.92;95747.25;4993498;28;19910;-46
2023/06/25 05:19:39;;;;;;;;;;;21.90;48.40;;;18.46;67.74;95747.84;5008808;28;21272;-47
2023/06/25 05:22:05;;;;;;;;;;;22.10;48.20;;;18.70;66.42;95748.25;4978820;28;19913;-47
2023/06/25 05:24:31;;;;;;;;;;;22.40;48.00;;;18.96;66.31;95752.97;4989554;28;19933;-51
2023/06/25 05:26:57;;;;;;;;;;;22.60;47.80;;;19.16;65.29;95752.38;4979249;28;19909;-50
2023/06/25 05:29:23;;;;;;;;;;;22.90;47.60;;;19.41;64.34;95750.81;4989556;28;19914;-47
2023/06/25 05:31:49;;;;;;;;;;;23.20;47.40;;;19.62;64.24;95758.31;4993218;28;19935;-46
2023/06/25 05:34:14;;;;;;;;;;;23.40;47.20;;;19.83;64.14;95750.38;4990290;28;19937;-48
2023/06/25 05:36:40;;;;;;;;;;;23.70;46.90;;;20.05;60.78;95757.50;4993510;28;19917;-46
2023/06/25 05:39:06;;;;;;;;;;;24.00;46.60;;;20.28;60.42;95760.81;4985577;28;19922;-48
2023/06/25 05:41:32;;;;;;;;;;;24.30;46.30;;;20.38;59.79;95757.75;4993562;28;20000;-49
2023/06/25 05:43:58;;;;;;;;;;;24.50;46.00;;;20.44;59.66;95761.09;4993160;28;20008;-49
2023/06/25 05:46:23;;;;;;;;;;;24.80;45.70;;;20.43;59.08;95756.78;4982262;28;20008;-50
2023/06/25 05:48:49;;;;;;;;;;;25.00;45.40;;;20.44;59.51;95761.09;4993076;28;19936;-48
2023/06/25 05:51:15;;;;;;;;;;;25.10;45.10;;;20.37;58.64;95758.88;4989989;28;19916;-47
2023/06/25 05:53:43;;;;;;;;;;;25.30;44.80;;;20.61;58.23;95755.63;4976650;28;19909;-50
2023/06/25 05:56:10;;;;;;;;;;;25.40;45.20;;;20.73;57.52;95757.66;4990619;28;19917;-49
2023/06/25 05:58:36;;;;;;;;;;;25.50;44.40;;;20.94;56.21;95761.22;4985891;28;19909;-49
2023/06/25 06:01:03;;;;;;;;;;;25.60;44.20;;;21.16;56.06;95756.66;4985923;28;19944;-47
2023/06/25 06:03:29;;;;;;;;;;;25.80;44.10;;;21.21;55.76;95751.81;4991809;28;19916;-48
2023/06/25 06:05:58;;;;;;;;;;;26.00;44.00;;;21.37;56.00;95752.09;4992901;28;19913;-48
2023/06/25 06:08:24;;;;;;;;;;;26.10;43.70;;;21.48;55.84;95752.50;4989030;28;20611;-49
2023/06/25 06:10:50;;;;;;;;;;;26.30;43.50;;;21.51;54.94;95745.63;4992269;28;19909;-54
2023/06/25 06:13:16;;;;;;;;;;;26.40;43.20;;;21.51;53.92;95742.91;4992864;28;19916;-54
2023/06/25 06:15:42;;;;;;;;;;;26.60;43.00;;;21.60;54.35;95743.63;4967851;28;19921;-53
2023/06/25 06:18:08;;;;;;;;;;;26.70;42.70;;;21.77;54.08;95738.06;4976875;28;19917;-54
2023/06/25 06:20:34;;;;;;;;;;;26.80;42.50;;;21.88;53.73;95739.25;4968602;28;19910;-52
2023/06/25 06:23:02;;;;;;;;;;;26.90;42.40;;;22.00;53.53;95741.22;4988961;28;19909;-50
2023/06/25 06:25:27;;;;;;;;;;;27.00;42.20;;;22.25;52.32;95744.00;4973455;28;19914;-49
2023/06/25 06:27:54;;;;;;;;;;;27.20;42.10;;;22.38;52.75;95743.72;4970858;28;19910;-53
2023/06/25 06:30:21;;;;;;;;;;;27.30;41.90;;;22.46;52.84;95735.81;4977834;28;19917;-51
2023/06/25 06:32:47;;;;;;;;;;;27.40;41.70;;;22.63;52.54;95730.97;4975612;28;19980;-52
2023/06/25 06:35:13;;;;;;;;;;;27.60;41.60;;;22.79;52.68;95736.53;4974892;28;20369;-52
2023/06/25 06:37:39;;;;;;;;;;;27.80;41.40;;;22.95;51.95;95736.69;4975265;28;19910;-51
2023/06/25 06:40:05;;;;;;;;;;;27.90;41.20;;;23.04;50.90;95731.13;4980274;28;20386;-53
2023/06/25 06:42:33;;;;;;;;;;;28.10;41.00;;;23.14;51.02;95730.66;4978282;28;19914;-52
2023/06/25 06:44:59;;;;;;;;;;;28.30;41.00;;;23.17;50.36;95732.69;4981637;28;19977;-50
2023/06/25 06:47:25;;;;;;;;;;;28.50;40.80;;;22.83;49.25;95736.66;4986674;28;19913;-53
2023/06/25 06:49:50;;;;;;;;;;;28.60;40.60;;;22.83;49.92;95736.66;4981788;28;20394;-51
2023/06/25 06:52:16;;;;;;;;;;;28.70;40.30;;;22.94;48.54;95740.53;4979659;28;19914;-50
2023/06/25 06:54:42;;;;;;;;;;;28.90;40.20;;;23.28;48.17;95739.25;4977214;28;20366;-50
2023/06/25 06:57:08;;;;;;;;;;;29.00;39.90;;;23.54;47.54;95749.72;4975188;28;19956;-50
2023/06/25 06:59:33;;;;;;;;;;;29.20;39.70;;;23.82;46.58;95746.28;4981101;28;19914;-49
2023/06/25 07:01:59;;;;;;;;;;;29.30;39.50;;;24.13;45.98;95751.03;4970861;28;19910;-55
2023/06/25 07:04:25;;;;;;;;;;;29.50;39.40;;;24.35;45.62;95749.69;4975718;28;19956;-51
2023/06/25 07:06:50;;;;;;;;;;;29.70;39.20;;;24.56;44.82;95754.91;4978822;28;19914;-49
2023/06/25 07:09:25;;;;;;;;;;;30.00;39.00;;;24.53;44.57;95750.16;4970702;28;19914;-49
2023/06/25 07:11:51;;;;;;;;;;;30.20;38.60;;;24.76;45.25;95754.97;4981113;28;19909;-53
2023/06/25 07:14:17;;;;;;;;;;;30.30;38.30;;;24.95;44.05;95752.38;4983796;28;19910;-50
2023/06/25 07:16:42;;;;;;;;;;;30.50;38.10;;;25.14;44.13;95743.50;4985571;28;20275;-49
2023/06/25 07:19:08;;;;;;;;;;;30.60;37.80;;;25.22;43.88;95745.22;4977735;28;19913;-49
2023/06/25 07:21:34;;;;;;;;;;;30.80;37.70;;;24.88;44.87;95747.53;4972665;28;20012;-49
2023/06/25 07:24:00;;;;;;;;;;;30.80;37.40;;;25.03;43.84;95754.09;4985779;28;19984;-51
2023/06/25 07:26:27;;;;;;;;;;;30.90;37.20;;;25.31;43.87;95747.75;4991875;28;19925;-51
2023/06/25 07:28:53;;;;;;;;;;;31.10;37.10;;;25.64;43.71;95752.78;4991389;28;19925;-50
2023/06/25 07:31:19;;;;;;;;;;;31.20;37.00;;;25.78;43.74;95747.59;4995468;28;19913;-48
2023/06/25 07:33:44;;;;;;;;;;;31.40;36.90;;;25.92;43.15;95749.88;4979440;28;19909;-48
2023/06/25 07:36:10;;;;;;;;;;;31.60;36.70;;;26.06;42.18;95739.22;4976202;28;19914;-48
2023/06/25 07:38:36;;;;;;;;;;;31.80;36.60;;;26.35;41.91;95749.91;4975110;28;19949;-53
2023/06/25 07:41:02;;;;;;;;;;;31.90;36.40;;;26.68;41.18;95750.16;4976225;28;20795;-48
2023/06/25 07:43:28;;;;;;;;;;;32.10;36.20;;;26.59;40.60;95749.59;4975944;28;19916;-51
2023/06/25 07:45:53;;;;;;;;;;;32.30;35.90;;;26.84;40.70;95757.44;4974651;28;19921;-51
2023/06/25 07:48:19;;;;;;;;;;;32.50;35.80;;;27.12;40.33;95757.09;4975598;28;20288;-51
2023/06/25 07:50:45;;;;;;;;;;;32.60;35.60;;;27.29;40.21;95750.34;4979447;28;19909;-49
2023/06/25 07:53:11;;;;;;;;;;;32.90;35.40;;;27.38;38.88;95756.34;4980746;28;19917;-48
2023/06/25 07:55:41;;;;;;;;;;;33.00;35.10;;;27.63;38.45;95759.41;4974470;28;19910;-54
2023/06/25 07:58:08;;;;;;;;;;;33.20;34.90;;;27.91;38.50;95751.59;4974741;28;19909;-55
2023/06/25 08:00:34;;;;;;;;;;;33.30;34.80;;;28.09;38.69;95751.81;4975562;28;19916;-52
2023/06/25 08:03:00;;;;;;;;;;;33.50;35.30;;;28.11;39.34;95744.03;4974282;28;19976;-48
2023/06/25 08:05:26;;;;;;;;;;;33.80;34.60;;;28.25;38.24;95742.59;4975576;28;19914;-50
2023/06/25 08:07:52;;;;;;;;;;;34.00;34.50;;;28.46;37.06;95751.09;4975370;28;20343;-53
2023/06/25 08:10:18;;;;;;;;;;;34.10;34.20;;;28.73;36.54;95748.97;4974314;28;19910;-53
2023/06/25 08:12:53;;;;;;;;;;;34.30;34.00;;;28.83;36.14;95751.03;4975361;28;19964;-48
2023/06/25 08:15:20;;;;;;;;;;;34.50;33.80;;;28.72;36.20;95744.66;4974196;28;19980;-50
2023/06/25 08:17:47;;;;;;;;;;;34.70;33.40;;;28.74;36.58;95753.31;4975396;28;20008;-52
2023/06/25 08:20:13;;;;;;;;;;;34.80;33.20;;;29.10;36.19;95741.88;4974245;28;20359;-48
2023/06/25 08:22:39;;;;;;;;;;;34.90;33.10;;;29.55;36.67;95737.84;4974837;28;19910;-49
2023/06/25 08:25:21;;;;;;;;;;;35.20;33.10;;;29.90;35.47;95740.00;4974013;28;19917;-52
2023/06/25 08:27:46;;;;;;;;;;;35.40;33.00;;;29.85;34.22;95734.09;4970589;28;19964;-51
2023/06/25 08:30:13;;;;;;;;;;;35.60;32.70;;;29.79;35.00;95738.38;4975025;28;19914;-48
2023/06/25 08:32:38;;;;;;;;;;;35.70;32.40;;;30.17;35.19;95740.50;4975051;28;19910;-49
2023/06/25 08:35:04;;;;;;;;;;;35.90;32.40;;;30.27;34.50;95738.97;4986709;28;19917;-51
2023/06/25 08:37:30;;;;;;;;;;;36.00;32.10;;;29.42;35.85;95737.38;4974897;28;20016;-53
2023/06/25 08:39:56;;;;;;;;;;;36.10;31.70;;;29.42;35.14;95737.38;4973296;28;20029;-53
2023/06/25 08:42:21;;;;;;;;;;;36.10;31.50;;;29.54;35.30;95738.22;4974073;28;19914;-53
2023/06/25 08:44:47;;;;;;;;;;;36.10;31.30;;;29.81;34.91;95734.09;4973121;28;19949;-50
2023/06/25 08:47:19;;;;;;;;;;;36.10;31.20;;;30.12;34.63;95737.34;4980943;28;20003;-51
2023/06/25 08:49:50;;;;;;;;;;;36.10;31.20;;;30.25;34.88;95743.31;4974681;28;19918;-53
2023/06/25 08:52:20;;;;;;;;;;;36.20;31.10;;;30.56;34.13;95736.31;4983236;28;20296;-48
2023/06/25 08:54:46;;;;;;;;;;;36.50;31.30;;;30.43;33.90;95741.41;4989279;28;19932;-51
2023/06/25 08:57:13;;;;;;;;;;;36.70;31.10;;;30.46;34.46;95737.84;4973687;28;19924;-51
2023/06/25 08:59:38;;;;;;;;;;;36.90;31.00;;;30.37;33.32;95738.22;4974698;28;20081;-53
2023/06/25 09:02:04;;;;;;;;;;;37.00;30.60;;;30.34;33.25;95741.75;4976581;28;20012;-57
2023/06/25 09:04:30;;;;;;;;;;;37.00;30.30;;;30.01;34.77;95740.03;4988940;28;19910;-49
2023/06/25 09:07:08;;;;;;;;;;;37.00;30.10;;;30.29;34.34;95733.88;4973980;28;20357;-52
2023/06/25 09:09:34;;;;;;;;;;;36.90;30.00;;;30.53;34.38;95740.63;4987768;28;19920;-50
2023/06/25 09:12:00;;;;;;;;;;;37.00;30.00;;;30.76;33.88;95733.97;4974293;28;19917;-49
2023/06/25 09:14:27;;;;;;;;;;;37.00;30.00;;;30.81;33.19;95739.13;4973413;28;22360;-51
2023/06/25 09:16:54;;;;;;;;;;;37.00;29.90;;;30.88;33.38;95741.84;4973994;28;19963;-49
2023/06/25 09:19:22;;;;;;;;;;;37.20;29.90;;;31.17;33.52;95736.34;4974222;28;19992;-48
2023/06/25 09:21:48;;;;;;;;;;;37.30;29.90;;;31.74;32.19;95736.25;4973527;28;19910;-48
2023/06/25 09:24:19;;;;;;;;;;;37.40;29.90;;;31.90;31.50;95722.84;4973953;28;19933;-48
2023/06/25 09:26:46;;;;;;;;;;;37.70;29.80;;;31.96;32.00;95726.75;4972067;28;20004;-48
2023/06/25 09:29:13;;;;;;;;;;;37.80;29.60;;;32.19;31.46;95725.47;4972584;28;19961;-51
2023/06/25 09:31:42;;;;;;;;;;;38.00;29.50;;;31.95;31.51;95724.41;4973950;28;20460;-55
2023/06/25 09:34:10;;;;;;;;;;;38.10;29.40;;;32.21;32.02;95729.38;4984476;28;19933;-55
2023/06/25 09:36:36;;;;;;;;;;;38.20;29.20;;;32.55;30.97;95728.81;4965819;28;19932;-52
2023/06/25 09:39:08;;;;;;;;;;;38.20;29.10;;;32.83;29.42;95725.09;4973119;28;19918;-53
2023/06/25 09:41:38;;;;;;;;;;;38.30;29.00;;;32.55;29.74;95719.78;4974021;28;19910;-55
2023/06/25 09:44:05;;;;;;;;;;;38.40;28.80;;;32.37;29.83;95723.38;4973118;28;19996;-52
2023/06/25 09:46:37;;;;;;;;;;;38.40;28.60;;;32.21;29.64;95712.84;4973628;28;19968;-53
2023/06/25 09:49:04;;;;;;;;;;;38.40;29.00;;;32.13;29.59;95716.06;4961231;28;19914;-52
2023/06/25 09:51:57;;;;;;;;;;;38.40;28.30;;;32.46;29.32;95720.22;4973050;28;19910;-55
2023/06/25 09:54:25;;;;;;;;;;;38.40;28.30;;;32.95;29.19;95723.81;4973560;28;20387;-48
2023/06/25 09:56:53;;;;;;;;;;;38.40;28.20;;;33.14;29.71;95714.22;4973039;28;19944;-48
2023/06/25 09:59:19;;;;;;;;;;;38.50;28.20;;;33.35;28.08;95716.00;4985219;28;20432;-50
2023/06/25 10:01:45;;;;;;;;;;;38.60;28.20;;;33.15;27.69;95713.00;4972148;28;19964;-49
2023/06/25 10:04:12;;;;;;;;;;;38.70;28.00;;;33.06;28.05;95713.50;4972446;28;19917;-50
2023/06/25 10:06:38;;;;;;;;;;;38.70;27.90;;;32.76;28.47;95721.59;4973440;28;20323;-49
2023/06/25 10:09:05;;;;;;;;;;;38.70;27.80;;;32.87;28.43;95719.53;4972438;28;19914;-49
2023/06/25 10:11:32;;;;;;;;;;;38.70;27.70;;;32.98;28.47;95716.72;4973718;28;19980;-52
2023/06/25 10:13:58;;;;;;;;;;;38.80;27.60;;;33.19;28.42;95711.03;4984721;28;20351;-52
2023/06/25 10:16:30;;;;;;;;;;;38.90;27.60;;;33.07;27.93;95697.75;4972846;28;19909;-49
2023/06/25 10:18:56;;;;;;;;;;;38.90;27.50;;;33.04;28.52;95713.13;4971639;28;20338;-51
2023/06/25 10:21:24;;;;;;;;;;;39.00;27.40;;;33.23;27.44;95708.22;4971981;28;19913;-52
2023/06/25 10:24:01;;;;;;;;;;;39.10;27.30;;;33.36;28.08;95710.06;4973064;28;20639;-50
2023/06/25 10:26:36;;;;;;;;;;;39.20;27.20;;;33.38;28.42;95710.44;4972650;28;20005;-49
2023/06/25 10:29:07;;;;;;;;;;;39.30;27.70;;;33.75;27.07;95705.31;4973112;28;19960;-49
2023/06/25 10:31:38;;;;;;;;;;;39.40;27.10;;;33.77;27.38;95703.72;4973199;28;20366;-51
2023/06/25 10:34:08;;;;;;;;;;;39.50;27.20;;;33.49;27.28;95695.72;4971849;28;19913;-51
2023/06/25 10:36:34;;;;;;;;;;;39.60;26.90;;;33.87;27.33;95696.50;4973079;28;19910;-49
2023/06/25 10:39:00;;;;;;;;;;;39.70;26.90;;;33.54;28.28;95695.31;4972087;28;19956;-48
2023/06/25 10:41:31;;;;;;;;;;;39.80;27.20;;;33.54;28.36;95693.34;4973064;28;19956;-49
2023/06/25 10:44:00;;;;;;;;;;;39.90;26.70;;;33.09;28.49;95698.09;4972023;28;19921;-52
2023/06/25 10:46:32;;;;;;;;;;;39.80;26.50;;;33.36;28.35;95693.50;4960916;23;19968;-49
2023/06/25 10:48:59;;;;;;;;;;;39.90;26.60;;;33.82;28.54;95692.22;4943155;28;19957;-55
2023/06/25 10:51:27;;;;;;;;;;;39.90;26.60;;;34.08;27.97;95693.50;4946945;28;19910;-53
2023/06/25 10:53:56;;;;;;;;;;;40.10;26.60;;;34.32;26.97;95688.03;4936737;28;19921;-55
2023/06/25 10:56:23;;;;;;;;;;;40.30;26.50;;;34.64;26.76;95693.13;4944461;28;19919;-52
2023/06/25 10:58:58;;;;;;;;;;;40.40;26.40;;;34.30;26.58;95682.13;4936982;28;19917;-53
2023/06/25 11:01:32;;;;;;;;;;;40.60;26.30;;;34.31;26.71;95694.75;4934089;29;19918;-56
2023/06/25 11:03:58;;;;;;;;;;;40.70;26.20;;;34.42;27.16;95686.31;4947044;28;19914;-55
2023/06/25 11:06:24;;;;;;;;;;;40.90;26.20;;;34.00;27.75;95691.19;4940811;28;19961;-53
2023/06/25 11:08:50;;;;;;;;;;;41.00;26.10;;;34.14;27.55;95690.28;4950560;29;19956;-55
2023/06/25 11:11:16;;;;;;;;;;;41.10;26.00;;;34.22;25.94;95684.25;4940863;28;19933;-52
2023/06/25 11:13:41;;;;;;;;;;;41.20;25.90;;;34.71;26.12;95670.88;4934107;29;20288;-55
2023/06/25 11:16:07;;;;;;;;;;;41.30;25.90;;;34.54;26.16;95680.25;4949341;28;19910;-54